Time;durP1;ratioP1;P1;durP2;ratioP2;P2;SDS_P1;SDS_P2;PMS_P1;PMS_P2;Temp;Humidity;BMP_temperature;BMP_pressure;BME280_temperature;BME280_humidity;BME280_pressure;Samples;Min_cycle;Max_cycle;Signal;HPM_P1;HPM_P2
2023/08/28 00:01:15;;;;;;;3.10;1.00;;;;;;;;;;4993537;28;20202;-81
2023/08/28 00:03:45;;;;;;;3.47;1.10;;;;;;;;;;5010735;28;20299;-83
2023/08/28 00:06:12;;;;;;;4.53;1.23;;;;;;;;;;5012543;28;20193;-82
2023/08/28 00:08:40;;;;;;;4.77;1.47;;;;;;;;;;5012946;28;20213;-81
2023/08/28 00:11:07;;;;;;;3.27;1.40;;;;;;;;;;5013121;28;20260;-82
2023/08/28 00:13:34;;;;;;;2.57;1.40;;;;;;;;;;5012902;28;20656;-82
2023/08/28 00:16:02;;;;;;;4.33;1.80;;;;;;;;;;5012684;28;20231;-82
2023/08/28 00:18:29;;;;;;;4.87;1.40;;;;;;;;;;5011897;28;20209;-82
2023/08/28 00:20:58;;;;;;;4.87;1.47;;;;;;;;;;5012082;28;20228;-82
2023/08/28 00:23:25;;;;;;;5.30;1.80;;;;;;;;;;5012422;28;20261;-82
2023/08/28 00:25:52;;;;;;;4.07;1.73;;;;;;;;;;5012054;28;20675;-82
2023/08/28 00:28:19;;;;;;;5.17;1.90;;;;;;;;;;5012768;28;20232;-81
2023/08/28 00:30:46;;;;;;;5.47;1.30;;;;;;;;;;5012557;28;20670;-81
2023/08/28 00:33:14;;;;;;;4.10;1.53;;;;;;;;;;5012481;28;20296;-81
2023/08/28 00:35:42;;;;;;;3.70;1.33;;;;;;;;;;5012485;28;20291;-82
2023/08/28 00:38:11;;;;;;;5.27;1.40;;;;;;;;;;5012357;28;20197;-82
2023/08/28 00:40:40;;;;;;;3.30;1.47;;;;;;;;;;5012054;28;20201;-82
2023/08/28 00:43:08;;;;;;;4.20;1.60;;;;;;;;;;5012193;28;20205;-82
2023/08/28 00:45:35;;;;;;;4.27;1.40;;;;;;;;;;5012141;28;20613;-83
2023/08/28 00:48:04;;;;;;;3.77;1.50;;;;;;;;;;5012089;28;20224;-82
2023/08/28 00:50:31;;;;;;;2.97;1.40;;;;;;;;;;5012495;28;20225;-83
2023/08/28 00:52:58;;;;;;;3.10;1.50;;;;;;;;;;5011879;28;20225;-82
2023/08/28 00:55:27;;;;;;;3.07;1.60;;;;;;;;;;5011832;28;20236;-83
2023/08/28 00:57:54;;;;;;;4.90;1.83;;;;;;;;;;5011775;28;20551;-83
2023/08/28 01:00:21;;;;;;;4.27;1.73;;;;;;;;;;5011807;28;20197;-83
2023/08/28 01:02:49;;;;;;;3.17;1.40;;;;;;;;;;5009694;28;20328;-82
2023/08/28 01:05:16;;;;;;;4.93;1.70;;;;;;;;;;5002816;28;20210;-83
2023/08/28 01:07:47;;;;;;;4.00;1.60;;;;;;;;;;4992654;28;20194;-83
2023/08/28 01:10:16;;;;;;;3.67;1.70;;;;;;;;;;4992241;28;20249;-82
2023/08/28 01:12:48;;;;;;;5.70;2.00;;;;;;;;;;4992227;28;20230;-82
2023/08/28 01:15:17;;;;;;;3.33;1.90;;;;;;;;;;4991898;28;20277;-83
2023/08/28 01:17:46;;;;;;;4.30;1.90;;;;;;;;;;5003517;28;20240;-81
2023/08/28 01:20:15;;;;;;;2.50;1.80;;;;;;;;;;5011530;28;20201;-83
2023/08/28 01:22:45;;;;;;;4.60;1.77;;;;;;;;;;5011835;28;20203;-81
2023/08/28 01:25:15;;;;;;;4.37;1.90;;;;;;;;;;5011297;28;20239;-83
2023/08/28 01:27:42;;;;;;;3.53;1.60;;;;;;;;;;5011779;28;20202;-82
2023/08/28 01:30:10;;;;;;;4.73;1.87;;;;;;;;;;5011491;28;20293;-82
2023/08/28 01:32:37;;;;;;;3.53;1.80;;;;;;;;;;5011975;28;20256;-82
2023/08/28 01:35:07;;;;;;;5.03;2.00;;;;;;;;;;5011730;28;20248;-82
2023/08/28 01:37:38;;;;;;;4.23;2.00;;;;;;;;;;5011208;28;20229;-83
2023/08/28 01:40:06;;;;;;;3.67;1.70;;;;;;;;;;5011336;28;20224;-81
2023/08/28 01:42:35;;;;;;;6.23;1.70;;;;;;;;;;5011469;28;20201;-83
2023/08/28 01:45:03;;;;;;;3.93;1.77;;;;;;;;;;5011575;28;20209;-83
2023/08/28 01:47:30;;;;;;;4.07;1.90;;;;;;;;;;5011263;28;20201;-83
2023/08/28 01:49:58;;;;;;;4.57;1.80;;;;;;;;;;5011602;28;20291;-84
2023/08/28 01:52:25;;;;;;;3.60;1.80;;;;;;;;;;5011368;28;20284;-83
2023/08/28 01:54:52;;;;;;;3.87;1.80;;;;;;;;;;5010803;28;20220;-82
2023/08/28 01:57:19;;;;;;;3.30;2.00;;;;;;;;;;5010742;28;20293;-83
2023/08/28 01:59:48;;;;;;;4.17;2.10;;;;;;;;;;5011210;28;20243;-82
2023/08/28 02:02:15;;;;;;;5.57;2.10;;;;;;;;;;5011194;28;20626;-82
2023/08/28 02:04:43;;;;;;;5.47;2.27;;;;;;;;;;5011124;28;20240;-82
2023/08/28 02:07:10;;;;;;;3.57;2.10;;;;;;;;;;5011179;28;20280;-83
2023/08/28 02:09:37;;;;;;;5.57;2.30;;;;;;;;;;5011130;28;20239;-82
2023/08/28 02:12:05;;;;;;;3.73;2.00;;;;;;;;;;5010919;28;20252;-82
2023/08/28 02:14:33;;;;;;;4.47;2.58;;;;;;;;;;5010917;28;20674;-82
2023/08/28 02:17:01;;;;;;;3.20;2.30;;;;;;;;;;5010698;28;20805;-83
2023/08/28 02:19:28;;;;;;;5.43;2.60;;;;;;;;;;5011130;28;20267;-81
2023/08/28 02:21:55;;;;;;;5.00;2.67;;;;;;;;;;5010406;28;20744;-83
2023/08/28 02:24:23;;;;;;;3.43;2.60;;;;;;;;;;5011375;28;20197;-82
2023/08/28 02:26:50;;;;;;;5.17;2.27;;;;;;;;;;5010999;28;20296;-82
2023/08/28 02:29:17;;;;;;;3.57;2.50;;;;;;;;;;5010910;28;20223;-82
2023/08/28 02:31:45;;;;;;;4.47;2.77;;;;;;;;;;5010890;28;20308;-82
2023/08/28 02:34:13;;;;;;;4.57;2.70;;;;;;;;;;5010836;28;20239;-82
2023/08/28 02:36:40;;;;;;;5.87;2.50;;;;;;;;;;5011065;28;20291;-83
2023/08/28 02:39:08;;;;;;;5.20;2.60;;;;;;;;;;5011070;28;20289;-82
2023/08/28 02:41:35;;;;;;;4.43;2.67;;;;;;;;;;5011783;28;20232;-82
2023/08/28 02:44:03;;;;;;;4.03;2.30;;;;;;;;;;5014450;28;20224;-82
2023/08/28 02:46:30;;;;;;;4.27;2.30;;;;;;;;;;5014145;28;20197;-81
2023/08/28 02:48:57;;;;;;;4.57;2.50;;;;;;;;;;5014680;28;20229;-83
2023/08/28 02:51:25;;;;;;;4.67;2.40;;;;;;;;;;5013804;28;20299;-83
2023/08/28 02:53:53;;;;;;;4.60;2.70;;;;;;;;;;5014128;28;20229;-83
2023/08/28 02:56:24;;;;;;;5.80;2.70;;;;;;;;;;5014167;28;20197;-79
2023/08/28 02:58:53;;;;;;;6.53;2.63;;;;;;;;;;5013800;28;20233;-80
2023/08/28 03:01:21;;;;;;;3.58;2.13;;;;;;;;;;5014516;28;20229;-82
2023/08/28 03:03:48;;;;;;;2.80;2.17;;;;;;;;;;5013937;28;20654;-82
2023/08/28 03:06:16;;;;;;;3.33;2.00;;;;;;;;;;5013959;28;20223;-83
2023/08/28 03:08:44;;;;;;;5.20;2.57;;;;;;;;;;5014174;28;20209;-82
2023/08/28 03:11:11;;;;;;;4.23;2.27;;;;;;;;;;5013720;28;20258;-82
2023/08/28 03:13:39;;;;;;;6.27;2.43;;;;;;;;;;5013640;28;20201;-83
2023/08/28 03:16:06;;;;;;;4.90;2.25;;;;;;;;;;5014275;28;20639;-83
2023/08/28 03:18:33;;;;;;;3.27;2.20;;;;;;;;;;5013743;28;20229;-82
2023/08/28 03:21:00;;;;;;;2.92;2.00;;;;;;;;;;5013401;28;20299;-82
2023/08/28 03:23:28;;;;;;;4.78;2.35;;;;;;;;;;5013803;28;20733;-83
2023/08/28 03:25:56;;;;;;;4.87;2.17;;;;;;;;;;5013815;28;20197;-82
2023/08/28 03:28:23;;;;;;;4.93;2.10;;;;;;;;;;5013733;28;20615;-83
2023/08/28 03:30:51;;;;;;;3.20;1.83;;;;;;;;;;5013872;28;20237;-83
2023/08/28 03:33:18;;;;;;;3.15;2.15;;;;;;;;;;5014068;28;20707;-83
2023/08/28 03:35:45;;;;;;;3.88;2.08;;;;;;;;;;5013022;28;20193;-83
2023/08/28 03:38:13;;;;;;;3.90;2.10;;;;;;;;;;5013443;28;21284;-82
2023/08/28 03:40:40;;;;;;;3.88;2.25;;;;;;;;;;5013071;28;20197;-82
2023/08/28 03:43:09;;;;;;;3.93;2.13;;;;;;;;;;5013684;28;20224;-83
2023/08/28 03:45:36;;;;;;;4.33;2.27;;;;;;;;;;5013350;28;20217;-83
2023/08/28 03:48:03;;;;;;;2.63;2.00;;;;;;;;;;5012857;28;20232;-82
2023/08/28 03:50:31;;;;;;;4.93;2.13;;;;;;;;;;5012773;28;20224;-82
2023/08/28 03:52:58;;;;;;;4.87;2.17;;;;;;;;;;5012148;28;20260;-81
2023/08/28 03:55:27;;;;;;;4.07;2.10;;;;;;;;;;5012993;28;20651;-82
2023/08/28 03:57:54;;;;;;;4.20;2.20;;;;;;;;;;5013090;28;20193;-82
2023/08/28 04:00:23;;;;;;;4.27;2.00;;;;;;;;;;5012967;28;20216;-82
2023/08/28 04:02:51;;;;;;;4.45;1.95;;;;;;;;;;5013267;28;20385;-83
2023/08/28 04:05:19;;;;;;;3.03;1.63;;;;;;;;;;5012664;28;20728;-83
2023/08/28 04:07:46;;;;;;;4.20;2.03;;;;;;;;;;5012947;28;20289;-82
2023/08/28 04:10:13;;;;;;;4.82;1.80;;;;;;;;;;5013082;28;20292;-83
2023/08/28 04:12:40;;;;;;;6.25;2.05;;;;;;;;;;5013066;28;20256;-82
2023/08/28 04:15:09;;;;;;;4.10;1.73;;;;;;;;;;5012828;28;20573;-83
2023/08/28 04:17:38;;;;;;;3.55;2.00;;;;;;;;;;5012660;28;20219;-83
2023/08/28 04:20:12;;;;;;;5.43;1.70;;;;;;;;;;5012392;28;20717;-83
2023/08/28 04:22:41;;;;;;;6.37;2.10;;;;;;;;;;5012852;28;20224;-82
2023/08/28 04:25:08;;;;;;;3.57;1.90;;;;;;;;;;5012418;28;20196;-83
2023/08/28 04:27:35;;;;;;;3.63;2.05;;;;;;;;;;5012323;28;20744;-82
2023/08/28 04:30:03;;;;;;;5.27;2.30;;;;;;;;;;5012411;28;20721;-84
2023/08/28 04:32:30;;;;;;;3.40;2.00;;;;;;;;;;5012168;28;20231;-83
2023/08/28 04:34:59;;;;;;;4.73;2.00;;;;;;;;;;5003489;28;20202;-82
2023/08/28 04:37:27;;;;;;;4.20;1.83;;;;;;;;;;4992786;28;20214;-83
2023/08/28 04:39:55;;;;;;;4.47;2.03;;;;;;;;;;5002895;28;20659;-82
2023/08/28 04:42:23;;;;;;;4.00;2.23;;;;;;;;;;5012224;28;20883;-81
2023/08/28 04:44:50;;;;;;;7.03;2.20;;;;;;;;;;5009816;28;20247;-83
2023/08/28 04:47:18;;;;;;;3.20;2.00;;;;;;;;;;5012077;28;20300;-82
2023/08/28 04:49:45;;;;;;;3.73;1.97;;;;;;;;;;5000932;28;20705;-83
2023/08/28 04:52:14;;;;;;;2.00;1.80;;;;;;;;;;4992023;28;20221;-82
2023/08/28 04:54:42;;;;;;;4.47;2.20;;;;;;;;;;4992602;28;20202;-82
2023/08/28 04:57:09;;;;;;;4.90;2.00;;;;;;;;;;4992650;28;20197;-83
2023/08/28 04:59:36;;;;;;;3.70;1.90;;;;;;;;;;4992587;28;20276;-82
2023/08/28 05:02:04;;;;;;;4.67;2.10;;;;;;;;;;5007766;28;20228;-81
2023/08/28 05:04:31;;;;;;;3.77;1.90;;;;;;;;;;4992256;28;20206;-82
2023/08/28 05:06:59;;;;;;;6.53;2.10;;;;;;;;;;4992074;28;20209;-81
2023/08/28 05:09:27;;;;;;;4.10;2.23;;;;;;;;;;4992729;28;20296;-81
2023/08/28 05:11:55;;;;;;;3.20;1.80;;;;;;;;;;4992305;28;20221;-81
2023/08/28 05:14:22;;;;;;;5.13;2.03;;;;;;;;;;4992235;28;20293;-82
2023/08/28 05:16:49;;;;;;;2.47;1.70;;;;;;;;;;4995451;28;20225;-81
2023/08/28 05:19:16;;;;;;;5.80;2.10;;;;;;;;;;5011870;28;20291;-82
2023/08/28 05:21:43;;;;;;;3.53;2.10;;;;;;;;;;4992561;28;20245;-82
2023/08/28 05:24:11;;;;;;;5.40;2.80;;;;;;;;;;5000013;28;20247;-80
2023/08/28 05:26:38;;;;;;;5.40;2.27;;;;;;;;;;5011873;28;20284;-82
2023/08/28 05:29:05;;;;;;;4.57;2.17;;;;;;;;;;5011239;28;20201;-83
2023/08/28 05:31:33;;;;;;;4.40;2.20;;;;;;;;;;5010970;28;20293;-82
2023/08/28 05:34:00;;;;;;;3.80;2.03;;;;;;;;;;5011742;28;20693;-82
2023/08/28 05:36:27;;;;;;;2.50;2.10;;;;;;;;;;5011620;28;20232;-83
2023/08/28 05:38:54;;;;;;;3.60;2.00;;;;;;;;;;5011656;28;20224;-83
2023/08/28 05:41:21;;;;;;;4.43;1.90;;;;;;;;;;5008976;28;20240;-81
2023/08/28 05:43:50;;;;;;;2.33;1.63;;;;;;;;;;5011742;28;20233;-82
2023/08/28 05:46:17;;;;;;;3.40;1.90;;;;;;;;;;4998441;28;20205;-82
2023/08/28 05:48:45;;;;;;;3.57;1.97;;;;;;;;;;4991685;28;20202;-82
2023/08/28 05:51:13;;;;;;;4.47;2.10;;;;;;;;;;4998649;28;20213;-82
2023/08/28 05:53:40;;;;;;;3.00;1.90;;;;;;;;;;5008805;28;20724;-82
2023/08/28 05:56:08;;;;;;;4.50;1.83;;;;;;;;;;5007700;28;20653;-83
2023/08/28 05:58:35;;;;;;;5.90;2.00;;;;;;;;;;5007247;28;20237;-81
2023/08/28 06:01:04;;;;;;;3.10;1.67;;;;;;;;;;5006480;28;20233;-83
2023/08/28 06:03:31;;;;;;;4.00;1.40;;;;;;;;;;5007775;28;20209;-81
2023/08/28 06:05:59;;;;;;;4.47;1.50;;;;;;;;;;5011346;28;20292;-81
2023/08/28 06:08:26;;;;;;;2.15;1.13;;;;;;;;;;5011099;28;20296;-82
2023/08/28 06:10:54;;;;;;;2.40;1.20;;;;;;;;;;5011100;28;20247;-83
2023/08/28 06:13:21;;;;;;;1.85;1.13;;;;;;;;;;5011059;28;20260;-83
2023/08/28 06:15:48;;;;;;;1.45;0.75;;;;;;;;;;5010859;28;20227;-82
2023/08/28 06:18:17;;;;;;;1.52;0.80;;;;;;;;;;5014081;28;20583;-81
2023/08/28 06:20:45;;;;;;;12.38;1.98;;;;;;;;;;5015329;28;20240;-81
2023/08/28 06:23:13;;;;;;;2.47;1.10;;;;;;;;;;5014873;28;20630;-83
2023/08/28 06:25:40;;;;;;;1.15;0.70;;;;;;;;;;5014896;28;20209;-82
2023/08/28 06:28:07;;;;;;;1.23;0.68;;;;;;;;;;5013940;28;20662;-81
2023/08/28 06:30:34;;;;;;;2.10;0.60;;;;;;;;;;5014762;28;20228;-81
2023/08/28 06:33:02;;;;;;;1.90;1.00;;;;;;;;;;5014888;28;20271;-82
2023/08/28 06:35:30;;;;;;;1.95;0.77;;;;;;;;;;5014439;28;20197;-82
2023/08/28 06:37:57;;;;;;;1.73;0.73;;;;;;;;;;5014298;28;20193;-82
2023/08/28 06:40:25;;;;;;;1.30;1.20;;;;;;;;;;5014701;28;20221;-83
2023/08/28 06:42:52;;;;;;;2.03;1.30;;;;;;;;;;5014115;28;20276;-81
2023/08/28 06:45:19;;;;;;;1.50;0.90;;;;;;;;;;5014646;28;20236;-81
2023/08/28 06:47:47;;;;;;;1.30;1.02;;;;;;;;;;5014259;28;20197;-82
2023/08/28 06:50:14;;;;;;;1.70;0.82;;;;;;;;;;5014145;28;20297;-83
2023/08/28 06:52:42;;;;;;;1.15;0.70;;;;;;;;;;5013373;28;20709;-83
2023/08/28 06:55:10;;;;;;;2.20;0.70;;;;;;;;;;5014174;28;20237;-83
2023/08/28 06:57:38;;;;;;;1.27;0.80;;;;;;;;;;5013649;28;20212;-83
2023/08/28 07:00:08;;;;;;;2.00;0.80;;;;;;;;;;5013773;28;20772;-83
2023/08/28 07:02:35;;;;;;;1.33;0.80;;;;;;;;;;5014356;28;20208;-84
2023/08/28 07:05:03;;;;;;;3.17;0.80;;;;;;;;;;5013836;28;20296;-83
2023/08/28 07:07:30;;;;;;;1.00;0.90;;;;;;;;;;5013717;28;20280;-84
2023/08/28 07:09:59;;;;;;;1.48;0.93;;;;;;;;;;5014386;28;20217;-84
2023/08/28 07:12:26;;;;;;;1.60;0.90;;;;;;;;;;5013484;28;20682;-84
2023/08/28 07:15:07;;;;;;;1.13;0.80;;;;;;;;;;5014320;28;20288;-82
2023/08/28 07:17:34;;;;;;;2.35;1.00;;;;;;;;;;5013919;28;20288;-85
2023/08/28 07:20:02;;;;;;;2.40;1.27;;;;;;;;;;5012956;28;20292;-85
2023/08/28 07:22:29;;;;;;;1.55;1.20;;;;;;;;;;5013194;28;20208;-85
2023/08/28 07:24:57;;;;;;;2.13;1.10;;;;;;;;;;5013658;28;20259;-86
2023/08/28 07:27:26;;;;;;;2.10;0.82;;;;;;;;;;5011793;28;20225;-84
2023/08/28 07:29:53;;;;;;;0.70;0.63;;;;;;;;;;5012733;28;20244;-85
2023/08/28 07:32:21;;;;;;;2.00;1.05;;;;;;;;;;5012671;28;20296;-85
2023/08/28 07:34:48;;;;;;;0.93;0.77;;;;;;;;;;5013210;28;20323;-85
2023/08/28 07:37:16;;;;;;;1.23;0.65;;;;;;;;;;5013666;28;20236;-84
2023/08/28 07:39:43;;;;;;;1.00;0.90;;;;;;;;;;5013098;28;20232;-85
2023/08/28 07:42:10;;;;;;;2.10;0.85;;;;;;;;;;5012400;28;20197;-83
2023/08/28 07:44:39;;;;;;;1.58;0.60;;;;;;;;;;5013418;28;20244;-84
2023/08/28 07:47:06;;;;;;;1.13;0.50;;;;;;;;;;5013397;28;20674;-84
2023/08/28 07:49:34;;;;;;;0.90;0.55;;;;;;;;;;5010588;28;20209;-84
2023/08/28 07:52:01;;;;;;;0.80;0.60;;;;;;;;;;4664365;28;10000325;-84
2023/08/28 07:54:28;;;;;;;2.30;0.70;;;;;;;;;;5009838;28;20320;-84
2023/08/28 07:56:55;;;;;;;0.90;0.70;;;;;;;;;;5008476;28;20804;-84
2023/08/28 07:59:23;;;;;;;1.48;0.77;;;;;;;;;;5008990;28;20260;-83
2023/08/28 08:01:51;;;;;;;2.40;0.70;;;;;;;;;;5008999;28;20232;-84
2023/08/28 08:04:18;;;;;;;2.28;0.70;;;;;;;;;;5010321;28;20207;-83
2023/08/28 08:06:46;;;;;;;2.25;0.70;;;;;;;;;;5011059;28;20201;-84
2023/08/28 08:09:13;;;;;;;0.82;0.50;;;;;;;;;;4994111;28;20672;-85
2023/08/28 08:11:40;;;;;;;0.60;0.35;;;;;;;;;;4993432;28;20750;-86
2023/08/28 08:14:08;;;;;;;1.40;0.60;;;;;;;;;;5007898;28;20233;-87
2023/08/28 08:16:35;;;;;;;1.95;0.55;;;;;;;;;;5011219;28;20205;-88
2023/08/28 08:19:04;;;;;;;0.47;0.30;;;;;;;;;;5002243;28;20230;-85
2023/08/28 08:21:31;;;;;;;1.50;0.70;;;;;;;;;;5012902;28;20304;-86
2023/08/28 08:23:59;;;;;;;0.47;0.40;;;;;;;;;;5009382;28;20201;-86
2023/08/28 08:26:26;;;;;;;1.65;0.30;;;;;;;;;;5004422;28;20287;-85
2023/08/28 08:28:53;;;;;;;0.52;0.30;;;;;;;;;;5012316;28;20615;-84
2023/08/28 08:31:21;;;;;;;1.27;0.50;;;;;;;;;;5011828;28;20205;-83
2023/08/28 08:33:48;;;;;;;1.30;0.40;;;;;;;;;;5012617;28;20283;-84
2023/08/28 08:36:18;;;;;;;2.15;0.35;;;;;;;;;;5011795;28;20237;-85
2023/08/28 08:38:45;;;;;;;0.45;0.30;;;;;;;;;;5011927;28;20292;-84
2023/08/28 08:41:12;;;;;;;1.08;0.52;;;;;;;;;;5012410;28;20551;-85
2023/08/28 08:43:40;;;;;;;1.33;0.40;;;;;;;;;;5013067;28;20229;-85
2023/08/28 08:46:08;;;;;;;2.25;0.57;;;;;;;;;;5012497;28;20232;-86
2023/08/28 08:48:37;;;;;;;2.03;0.50;;;;;;;;;;5013030;28;20205;-85
2023/08/28 08:51:05;;;;;;;1.35;0.65;;;;;;;;;;5012793;28;20301;-86
2023/08/28 08:53:37;;;;;;;1.58;0.60;;;;;;;;;;5012121;28;20229;-85
2023/08/28 08:56:05;;;;;;;1.00;0.50;;;;;;;;;;5012068;28;20263;-83
2023/08/28 08:58:33;;;;;;;0.90;0.60;;;;;;;;;;5012237;28;20225;-85
2023/08/28 09:01:01;;;;;;;2.42;0.57;;;;;;;;;;5012475;28;20208;-85
2023/08/28 09:03:29;;;;;;;1.52;0.50;;;;;;;;;;5011797;28;20201;-84
2023/08/28 09:05:57;;;;;;;1.27;0.50;;;;;;;;;;5012369;28;20239;-85
2023/08/28 09:08:24;;;;;;;1.15;0.60;;;;;;;;;;5011960;28;20594;-86
2023/08/28 09:10:53;;;;;;;1.25;0.70;;;;;;;;;;5012189;28;20193;-86
2023/08/28 09:13:20;;;;;;;1.13;0.50;;;;;;;;;;5012286;28;20236;-85
2023/08/28 09:15:47;;;;;;;1.38;0.85;;;;;;;;;;5012456;28;20197;-85
2023/08/28 09:18:15;;;;;;;1.52;0.75;;;;;;;;;;5012260;28;20208;-85
2023/08/28 09:20:42;;;;;;;0.90;0.68;;;;;;;;;;5012119;28;20197;-85
2023/08/28 09:23:09;;;;;;;1.48;0.73;;;;;;;;;;5012310;28;20689;-87
2023/08/28 09:25:37;;;;;;;1.48;0.80;;;;;;;;;;4994608;28;20298;-85
2023/08/28 09:28:06;;;;;;;1.42;0.90;;;;;;;;;;5000154;28;20221;-87
2023/08/28 09:30:36;;;;;;;1.10;0.70;;;;;;;;;;4992317;28;20285;-86
2023/08/28 09:33:04;;;;;;;2.30;0.85;;;;;;;;;;4992352;28;20201;-84
2023/08/28 09:35:37;;;;;;;3.83;1.00;;;;;;;;;;4998676;28;20741;-87
2023/08/28 09:38:05;;;;;;;2.72;1.00;;;;;;;;;;5012141;28;20717;-87
2023/08/28 09:40:33;;;;;;;1.20;0.93;;;;;;;;;;5012066;28;20247;-85
2023/08/28 09:43:01;;;;;;;1.13;0.82;;;;;;;;;;5011374;28;20283;-84
2023/08/28 09:45:33;;;;;;;2.13;0.95;;;;;;;;;;5012285;28;20197;-86
2023/08/28 09:48:05;;;;;;;1.58;1.10;;;;;;;;;;5011931;28;20244;-86
2023/08/28 09:50:33;;;;;;;2.55;0.93;;;;;;;;;;5012269;28;20224;-87
2023/08/28 09:53:09;;;;;;;1.33;1.13;;;;;;;;;;5014759;28;20279;-86
2023/08/28 09:55:41;;;;;;;2.35;0.95;;;;;;;;;;5015657;28;20767;-86
2023/08/28 09:58:12;;;;;;;1.52;1.08;;;;;;;;;;5015937;28;20233;-85
2023/08/28 10:00:42;;;;;;;2.20;0.90;;;;;;;;;;5016359;28;20235;-88
2023/08/28 10:03:10;;;;;;;1.40;0.95;;;;;;;;;;5016243;28;20197;-87
2023/08/28 10:05:38;;;;;;;3.28;1.20;;;;;;;;;;5015679;28;20205;-87
2023/08/28 10:08:07;;;;;;;1.35;1.02;;;;;;;;;;5015332;28;20247;-85
2023/08/28 10:10:35;;;;;;;1.10;0.85;;;;;;;;;;5015736;28;20201;-85
2023/08/28 10:13:04;;;;;;;1.40;0.85;;;;;;;;;;5016048;28;20292;-87
2023/08/28 10:15:33;;;;;;;1.63;1.00;;;;;;;;;;5016234;28;20267;-85
2023/08/28 10:18:05;;;;;;;1.90;1.10;;;;;;;;;;5015980;28;20205;-87
2023/08/28 10:20:34;;;;;;;2.20;1.30;;;;;;;;;;5016265;28;20229;-86
2023/08/28 10:23:01;;;;;;;1.98;1.20;;;;;;;;;;5015270;28;20288;-86
2023/08/28 10:25:29;;;;;;;2.05;1.17;;;;;;;;;;5015917;28;20255;-89
2023/08/28 10:27:56;;;;;;;2.70;1.25;;;;;;;;;;5015972;28;20233;-86
2023/08/28 10:30:25;;;;;;;2.28;1.08;;;;;;;;;;5016003;28;20288;-87
2023/08/28 10:32:52;;;;;;;2.13;1.15;;;;;;;;;;5015555;28;20201;-87
2023/08/28 10:35:22;;;;;;;1.42;1.10;;;;;;;;;;5013414;28;20229;-86
2023/08/28 10:37:51;;;;;;;2.28;1.30;;;;;;;;;;5014687;28;20205;-84
2023/08/28 10:40:20;;;;;;;2.65;1.10;;;;;;;;;;5014599;28;20205;-83
2023/08/28 10:42:48;;;;;;;2.55;1.20;;;;;;;;;;5014358;28;20205;-83
2023/08/28 10:45:15;;;;;;;1.40;1.15;;;;;;;;;;5014592;28;20201;-85
2023/08/28 10:47:49;;;;;;;1.90;1.25;;;;;;;;;;5020127;28;20227;-86
2023/08/28 10:50:16;;;;;;;2.05;1.35;;;;;;;;;;5017722;28;20288;-86
2023/08/28 10:52:46;;;;;;;2.58;1.25;;;;;;;;;;5014640;28;20247;-85
2023/08/28 10:55:18;;;;;;;1.33;1.10;;;;;;;;;;5014325;28;20271;-86
2023/08/28 10:57:50;;;;;;;1.92;1.40;;;;;;;;;;5014699;28;20309;-85
2023/08/28 11:00:19;;;;;;;1.60;1.30;;;;;;;;;;5014417;28;20261;-84
2023/08/28 11:03:05;;;;;;;4.32;1.63;;;;;;;;;;5013860;28;20643;-84
2023/08/28 11:05:33;;;;;;;1.67;1.23;;;;;;;;;;5013235;28;20201;-85
2023/08/28 11:08:04;;;;;;;1.65;1.52;;;;;;;;;;5014213;28;20666;-85
2023/08/28 11:10:33;;;;;;;2.20;1.40;;;;;;;;;;5014526;28;20200;-82
2023/08/28 11:13:03;;;;;;;2.35;1.45;;;;;;;;;;5014060;28;20256;-84
2023/08/28 11:15:31;;;;;;;2.25;1.48;;;;;;;;;;5013802;28;20248;-84
2023/08/28 11:18:16;;;;;;;2.80;1.40;;;;;;;;;;5010389;28;20208;-83
2023/08/28 11:20:43;;;;;;;1.80;1.30;;;;;;;;;;5011876;28;20677;-85
2023/08/28 11:23:20;;;;;;;1.95;1.20;;;;;;;;;;5012056;28;20237;-85
2023/08/28 11:25:47;;;;;;;2.90;1.60;;;;;;;;;;5013342;28;20216;-86
2023/08/28 11:28:25;;;;;;;4.30;1.63;;;;;;;;;;5011286;28;20205;-83
2023/08/28 11:30:53;;;;;;;3.70;1.98;;;;;;;;;;5011289;28;20279;-87
2023/08/28 11:33:20;;;;;;;2.08;1.20;;;;;;;;;;5011936;28;20205;-83
2023/08/28 11:35:48;;;;;;;2.05;1.30;;;;;;;;;;5011014;28;20745;-83
2023/08/28 11:38:17;;;;;;;1.30;1.20;;;;;;;;;;5012283;28;20276;-82
2023/08/28 11:40:45;;;;;;;2.53;1.80;;;;;;;;;;5012225;28;20307;-82
2023/08/28 11:43:16;;;;;;;2.42;1.60;;;;;;;;;;5008202;28;20259;-81
2023/08/28 11:45:43;;;;;;;2.60;1.33;;;;;;;;;;5009516;28;20197;-80
2023/08/28 11:48:10;;;;;;;2.45;1.60;;;;;;;;;;5008839;28;20308;-80
2023/08/28 11:50:38;;;;;;;3.90;1.65;;;;;;;;;;5011920;28;20292;-82
2023/08/28 11:53:05;;;;;;;3.42;1.52;;;;;;;;;;5010606;28;20212;-81
2023/08/28 11:55:34;;;;;;;2.75;1.40;;;;;;;;;;5010330;28;20286;-80
2023/08/28 11:58:01;;;;;;;2.00;1.67;;;;;;;;;;5009929;28;20256;-81
2023/08/28 12:00:29;;;;;;;3.10;1.30;;;;;;;;;;5011434;28;20297;-81
2023/08/28 12:02:56;;;;;;;2.97;1.42;;;;;;;;;;5005831;28;20197;-84
2023/08/28 12:05:23;;;;;;;2.00;1.60;;;;;;;;;;5008818;28;20372;-83
2023/08/28 12:07:50;;;;;;;2.58;1.40;;;;;;;;;;5007202;28;20299;-83
2023/08/28 12:10:21;;;;;;;2.88;1.17;;;;;;;;;;5007305;28;20210;-84
2023/08/28 12:12:53;;;;;;;2.08;1.30;;;;;;;;;;5011345;28;20208;-85
2023/08/28 12:15:21;;;;;;;3.78;1.48;;;;;;;;;;5009675;28;20233;-83
2023/08/28 12:17:48;;;;;;;4.40;1.58;;;;;;;;;;5009756;28;20295;-82
2023/08/28 12:20:19;;;;;;;3.28;1.33;;;;;;;;;;5009091;28;20216;-82
2023/08/28 12:22:46;;;;;;;3.88;1.58;;;;;;;;;;5008219;28;20288;-83
2023/08/28 12:25:14;;;;;;;4.53;1.40;;;;;;;;;;5008571;28;20204;-83
2023/08/28 12:27:41;;;;;;;2.40;1.40;;;;;;;;;;5011752;28;20204;-81
2023/08/28 12:30:19;;;;;;;2.10;1.48;;;;;;;;;;5012419;28;20202;-82
2023/08/28 12:32:52;;;;;;;4.50;1.90;;;;;;;;;;5007997;28;20201;-85
2023/08/28 12:35:20;;;;;;;3.10;1.42;;;;;;;;;;5009677;28;20244;-85
2023/08/28 12:37:49;;;;;;;1.77;1.10;;;;;;;;;;5009452;28;20224;-84
2023/08/28 12:40:16;;;;;;;1.98;1.35;;;;;;;;;;5010151;28;20551;-83
2023/08/28 12:42:44;;;;;;;2.42;1.27;;;;;;;;;;5009681;28;20286;-84
2023/08/28 12:45:13;;;;;;;2.35;1.30;;;;;;;;;;5007888;28;20216;-83
2023/08/28 12:47:41;;;;;;;2.45;1.45;;;;;;;;;;5011348;28;20796;-83
2023/08/28 12:50:09;;;;;;;2.25;1.42;;;;;;;;;;5008501;28;20220;-88
2023/08/28 12:52:37;;;;;;;1.85;1.20;;;;;;;;;;5010523;28;20300;-86
2023/08/28 12:55:05;;;;;;;2.15;1.25;;;;;;;;;;5008222;28;20248;-85
2023/08/28 12:57:32;;;;;;;2.47;1.40;;;;;;;;;;5009156;28;20738;-86
2023/08/28 12:59:59;;;;;;;1.95;1.40;;;;;;;;;;4998733;28;20283;-87
2023/08/28 13:02:29;;;;;;;2.13;1.40;;;;;;;;;;5010338;28;20209;-84
2023/08/28 13:04:56;;;;;;;4.00;1.40;;;;;;;;;;5011338;28;20255;-85
2023/08/28 13:07:23;;;;;;;1.60;1.08;;;;;;;;;;5000604;28;20289;-84
2023/08/28 13:09:50;;;;;;;3.15;1.48;;;;;;;;;;5009065;28;20251;-84
2023/08/28 13:12:19;;;;;;;2.33;1.20;;;;;;;;;;5008153;28;20205;-86
2023/08/28 13:14:46;;;;;;;4.05;1.50;;;;;;;;;;5010348;28;20271;-86
2023/08/28 13:17:14;;;;;;;3.58;1.42;;;;;;;;;;5011697;28;20286;-84
2023/08/28 13:19:42;;;;;;;2.38;1.30;;;;;;;;;;5009298;28;20678;-85
2023/08/28 13:22:10;;;;;;;1.90;1.30;;;;;;;;;;5007678;28;20232;-86
2023/08/28 13:24:37;;;;;;;2.65;1.48;;;;;;;;;;5002676;28;20209;-84
2023/08/28 13:27:04;;;;;;;3.20;1.40;;;;;;;;;;5009074;28;20198;-84
2023/08/28 13:29:32;;;;;;;3.30;1.63;;;;;;;;;;5010406;28;20738;-84
2023/08/28 13:31:59;;;;;;;3.95;1.33;;;;;;;;;;5006428;28;20205;-83
2023/08/28 13:34:26;;;;;;;4.10;1.70;;;;;;;;;;5006471;28;20243;-83
2023/08/28 13:36:55;;;;;;;3.72;1.58;;;;;;;;;;5013496;28;20228;-83
2023/08/28 13:39:22;;;;;;;3.53;1.65;;;;;;;;;;5002015;28;20266;-83
2023/08/28 13:41:49;;;;;;;4.18;1.50;;;;;;;;;;5008209;28;20240;-82
2023/08/28 13:44:16;;;;;;;3.08;1.60;;;;;;;;;;5010557;28;20231;-82
2023/08/28 13:46:44;;;;;;;4.50;1.65;;;;;;;;;;5010231;28;20811;-83
2023/08/28 13:49:11;;;;;;;3.83;1.70;;;;;;;;;;5010533;28;20197;-82
2023/08/28 13:51:39;;;;;;;4.38;1.85;;;;;;;;;;5009574;28;20237;-82
2023/08/28 13:54:07;;;;;;;2.90;1.60;;;;;;;;;;5008970;28;20220;-82
2023/08/28 13:56:35;;;;;;;2.95;1.50;;;;;;;;;;5010569;28;20688;-82
2023/08/28 13:59:05;;;;;;;4.13;1.80;;;;;;;;;;5010365;28;20809;-83
2023/08/28 14:01:33;;;;;;;3.80;1.65;;;;;;;;;;5008592;28;20216;-82
2023/08/28 14:04:00;;;;;;;3.55;1.80;;;;;;;;;;5009169;28;20570;-82
2023/08/28 14:06:28;;;;;;;3.15;1.52;;;;;;;;;;5010859;28;20204;-82
2023/08/28 14:08:55;;;;;;;2.75;1.75;;;;;;;;;;5010563;28;20259;-83
2023/08/28 14:11:24;;;;;;;3.90;1.80;;;;;;;;;;5011006;28;20201;-83
2023/08/28 14:13:51;;;;;;;4.15;1.60;;;;;;;;;;5010505;28;20197;-82
2023/08/28 14:16:18;;;;;;;4.85;1.80;;;;;;;;;;5010610;28;20283;-81
2023/08/28 14:18:46;;;;;;;4.05;1.80;;;;;;;;;;5018455;28;20251;-82
2023/08/28 14:21:13;;;;;;;3.88;1.70;;;;;;;;;;5030607;28;20197;-83
2023/08/28 14:23:40;;;;;;;5.80;1.70;;;;;;;;;;5013983;28;20224;-81
2023/08/28 14:26:08;;;;;;;6.22;2.03;;;;;;;;;;5005029;28;20202;-81
2023/08/28 14:28:37;;;;;;;4.10;1.67;;;;;;;;;;5006416;28;20671;-82
2023/08/28 14:31:07;;;;;;;4.00;1.70;;;;;;;;;;5008187;28;20658;-83
2023/08/28 14:33:36;;;;;;;2.67;1.40;;;;;;;;;;5010362;28;20194;-82
2023/08/28 14:36:03;;;;;;;3.83;1.60;;;;;;;;;;5010300;28;20737;-82
2023/08/28 14:38:30;;;;;;;4.10;1.88;;;;;;;;;;5009974;28;20218;-81
2023/08/28 14:40:57;;;;;;;5.25;2.00;;;;;;;;;;5009446;28;20233;-83
2023/08/28 14:43:25;;;;;;;3.42;1.90;;;;;;;;;;5006924;28;20316;-83
2023/08/28 14:45:53;;;;;;;6.47;1.70;;;;;;;;;;5003528;28;20197;-82
2023/08/28 14:48:20;;;;;;;4.22;1.85;;;;;;;;;;5016397;28;20650;-82